Time;durP1;ratioP1;P1;durP2;ratioP2;P2;SDS_P1;SDS_P2;PMS_P1;PMS_P2;Temp;Humidity;BMP_temperature;BMP_pressure;BME280_temperature;BME280_humidity;BME280_pressure;Samples;Min_cycle;Max_cycle;Signal;HPM_P1;HPM_P2
2024/01/30 00:00:06;;;;;;;6.32;4.88;;;5.00;62.70;;;;;;5110907;28;20393;-79
2024/01/30 00:02:32;;;;;;;7.18;4.88;;;5.00;62.60;;;;;;5095594;28;20032;-79
2024/01/30 00:04:58;;;;;;;8.25;5.07;;;4.90;62.50;;;;;;5110172;28;20087;-79
2024/01/30 00:07:23;;;;;;;6.72;5.45;;;5.00;62.60;;;;;;5110309;28;20113;-80
2024/01/30 00:09:49;;;;;;;6.70;5.07;;;5.00;62.60;;;;;;5093877;28;20028;-79
2024/01/30 00:12:16;;;;;;;6.35;4.88;;;4.90;62.50;;;;;;5076238;28;20111;-79
2024/01/30 00:14:43;;;;;;;6.03;4.65;;;5.00;62.50;;;;;;5076010;28;20027;-78
2024/01/30 00:17:09;;;;;;;6.40;4.75;;;5.00;62.50;;;;;;5076698;28;20039;-79
2024/01/30 00:19:35;;;;;;;7.88;5.40;;;4.90;62.40;;;;;;5094224;28;20028;-79
2024/01/30 00:22:00;;;;;;;5.40;4.60;;;4.90;62.40;;;;;;5109960;28;20530;-78
2024/01/30 00:24:26;;;;;;;6.00;5.00;;;4.90;62.40;;;;;;5093658;28;20016;-79
2024/01/30 00:26:52;;;;;;;6.07;4.65;;;4.90;62.40;;;;;;5093773;28;20035;-77
2024/01/30 00:29:19;;;;;;;6.15;4.95;;;4.90;62.40;;;;;;5093839;28;20095;-77
2024/01/30 00:31:45;;;;;;;5.97;4.78;;;4.90;62.40;;;;;;5093792;28;20031;-80
2024/01/30 00:34:11;;;;;;;5.30;4.50;;;4.90;62.40;;;;;;5076069;28;20035;-79
2024/01/30 00:36:37;;;;;;;7.43;5.22;;;4.90;62.30;;;;;;5075754;28;20458;-79
2024/01/30 00:39:06;;;;;;;5.70;4.50;;;4.90;62.30;;;;;;5075493;28;20069;-78
2024/01/30 00:41:32;;;;;;;6.28;4.38;;;4.90;62.20;;;;;;5110489;28;20027;-79
2024/01/30 00:43:58;;;;;;;5.60;4.53;;;4.90;62.20;;;;;;5075998;28;20026;-79
2024/01/30 00:46:24;;;;;;;5.70;4.53;;;4.80;62.20;;;;;;5095213;28;20020;-78
2024/01/30 00:48:49;;;;;;;6.68;4.50;;;4.80;62.20;;;;;;5094205;28;20028;-79
2024/01/30 00:51:15;;;;;;;6.57;4.72;;;4.90;62.20;;;;;;5075902;28;20032;-78
2024/01/30 00:53:41;;;;;;;6.25;4.80;;;4.90;62.20;;;;;;5075652;28;20464;-79
2024/01/30 00:56:07;;;;;;;6.35;4.90;;;4.80;62.10;;;;;;5075761;28;20070;-80
2024/01/30 00:58:34;;;;;;;6.55;5.30;;;4.90;62.20;;;;;;5093965;28;20026;-78
2024/01/30 01:00:59;;;;;;;7.28;5.20;;;4.90;62.20;;;;;;5094042;28;20503;-79
2024/01/30 01:03:25;;;;;;;6.03;5.00;;;4.90;62.10;;;;;;5093466;28;20022;-78
2024/01/30 01:05:51;;;;;;;5.97;5.07;;;4.80;62.00;;;;;;5075816;28;20071;-78
2024/01/30 01:08:17;;;;;;;5.32;4.72;;;4.80;62.10;;;;;;5109557;28;20012;-78
2024/01/30 01:10:43;;;;;;;6.13;4.65;;;4.80;62.00;;;;;;5093595;28;20111;-78
2024/01/30 01:13:09;;;;;;;7.00;5.55;;;4.80;62.10;;;;;;5077488;28;20066;-79
2024/01/30 01:15:35;;;;;;;7.93;5.47;;;4.80;62.00;;;;;;5113814;28;20020;-78
2024/01/30 01:18:01;;;;;;;5.68;4.75;;;4.70;62.00;;;;;;5078180;28;20110;-78
2024/01/30 01:20:27;;;;;;;5.63;4.93;;;4.80;62.10;;;;;;5077447;28;20027;-78
2024/01/30 01:22:53;;;;;;;5.95;4.70;;;4.80;62.00;;;;;;5098034;28;20027;-77
2024/01/30 01:25:19;;;;;;;6.95;5.28;;;4.80;62.00;;;;;;5095450;28;20020;-78
2024/01/30 01:27:51;;;;;;;6.68;5.03;;;4.70;62.00;;;;;;5093984;28;20032;-78
2024/01/30 01:30:21;;;;;;;6.90;5.45;;;4.70;62.00;;;;;;5093926;28;20412;-77
2024/01/30 01:32:54;;;;;;;7.28;5.68;;;4.70;62.00;;;;;;5075845;28;20343;-77
2024/01/30 01:35:27;;;;;;;7.88;5.70;;;4.70;62.00;;;;;;5093608;28;20434;-78
2024/01/30 01:37:57;;;;;;;7.57;5.38;;;4.70;61.90;;;;;;5076165;28;20016;-77
2024/01/30 01:40:27;;;;;;;7.65;4.90;;;4.70;61.90;;;;;;5078924;28;20442;-78
2024/01/30 01:42:54;;;;;;;8.65;6.00;;;4.70;61.90;;;;;;5096921;28;20061;-78
2024/01/30 01:45:21;;;;;;;6.85;5.25;;;4.60;61.90;;;;;;5096692;28;20078;-78
2024/01/30 01:47:53;;;;;;;9.15;5.35;;;4.70;61.90;;;;;;5096845;28;20050;-78
2024/01/30 01:50:21;;;;;;;7.47;5.40;;;4.60;61.90;;;;;;5078575;28;20518;-79
2024/01/30 01:52:50;;;;;;;6.88;5.63;;;4.60;61.90;;;;;;5096861;28;20377;-77
2024/01/30 01:55:21;;;;;;;7.22;5.25;;;4.60;61.90;;;;;;5096713;28;20027;-79
2024/01/30 01:57:47;;;;;;;7.85;5.43;;;4.60;61.90;;;;;;5097153;28;20107;-79
2024/01/30 02:00:13;;;;;;;6.40;4.88;;;4.60;61.80;;;;;;5112575;28;20529;-79
2024/01/30 02:02:39;;;;;;;6.85;5.13;;;4.60;61.90;;;;;;5096419;28;20028;-79
2024/01/30 02:05:05;;;;;;;5.72;4.60;;;4.50;61.90;;;;;;5096557;28;20072;-78
2024/01/30 02:07:31;;;;;;;7.30;5.07;;;4.50;61.90;;;;;;5096298;28;20027;-77
2024/01/30 02:09:57;;;;;;;7.03;5.18;;;4.50;62.50;;;;;;5078631;28;20028;-77
2024/01/30 02:12:23;;;;;;;6.93;5.20;;;4.60;62.00;;;;;;5098361;28;20362;-79
2024/01/30 02:14:49;;;;;;;7.95;5.78;;;4.50;61.90;;;;;;5080132;28;20031;-77
2024/01/30 02:17:16;;;;;;;7.10;5.28;;;4.50;61.90;;;;;;5098554;28;20030;-79
2024/01/30 02:19:42;;;;;;;7.60;5.75;;;4.60;62.50;;;;;;5114972;28;20450;-78
2024/01/30 02:22:09;;;;;;;8.52;6.13;;;4.50;61.90;;;;;;5096910;28;20104;-78
2024/01/30 02:24:34;;;;;;;8.10;5.47;;;4.50;61.80;;;;;;5077952;28;20027;-79
2024/01/30 02:27:00;;;;;;;6.88;5.40;;;4.60;61.90;;;;;;5096889;28;20020;-77
2024/01/30 02:29:26;;;;;;;6.43;5.07;;;4.60;61.90;;;;;;5077818;28;20374;-78
2024/01/30 02:31:52;;;;;;;7.18;5.53;;;4.60;61.90;;;;;;5077925;28;20016;-79
2024/01/30 02:34:19;;;;;;;6.63;5.45;;;4.60;61.80;;;;;;5095897;28;20023;-78
2024/01/30 02:36:45;;;;;;;6.95;5.25;;;4.60;61.80;;;;;;5096199;28;20020;-78
2024/01/30 02:39:11;;;;;;;8.57;5.38;;;4.60;61.80;;;;;;5077653;28;20027;-77
2024/01/30 02:41:37;;;;;;;6.20;5.07;;;4.50;61.70;;;;;;5077693;28;20031;-78
2024/01/30 02:44:04;;;;;;;6.50;5.30;;;4.60;61.80;;;;;;5095430;28;20016;-79
2024/01/30 02:46:30;;;;;;;6.75;5.30;;;4.50;61.70;;;;;;5095496;28;20146;-78
2024/01/30 02:48:56;;;;;;;5.88;4.78;;;4.50;61.70;;;;;;5076998;28;20450;-77
2024/01/30 02:51:21;;;;;;;6.55;5.35;;;4.60;61.80;;;;;;5111344;28;20062;-78
2024/01/30 02:53:47;;;;;;;6.40;5.38;;;4.50;61.70;;;;;;5111789;28;20050;-78
2024/01/30 02:56:13;;;;;;;6.43;5.22;;;4.50;61.70;;;;;;5096032;28;20073;-77
2024/01/30 02:58:42;;;;;;;6.88;5.50;;;4.50;61.80;;;;;;5095923;28;20016;-78
2024/01/30 03:01:08;;;;;;;7.47;5.45;;;4.50;61.80;;;;;;5098232;28;20366;-78
2024/01/30 03:03:36;;;;;;;7.47;5.55;;;4.50;61.80;;;;;;5097939;28;20024;-78
2024/01/30 03:06:02;;;;;;;6.85;5.35;;;4.50;61.80;;;;;;5097199;28;20353;-79
2024/01/30 03:08:28;;;;;;;6.28;5.15;;;4.50;61.80;;;;;;5098430;28;20102;-77
2024/01/30 03:10:54;;;;;;;6.63;5.20;;;4.50;61.80;;;;;;5078336;28;20062;-78
2024/01/30 03:13:20;;;;;;;6.80;4.88;;;4.50;61.80;;;;;;5095731;28;20046;-79
2024/01/30 03:15:46;;;;;;;7.90;5.35;;;4.50;61.90;;;;;;5111162;28;20016;-79
2024/01/30 03:18:11;;;;;;;8.00;5.38;;;4.40;61.90;;;;;;5095109;28;20035;-77
2024/01/30 03:20:37;;;;;;;6.45;5.13;;;4.50;61.90;;;;;;5095235;28;20509;-78
2024/01/30 03:23:03;;;;;;;6.82;5.05;;;4.50;61.90;;;;;;5095089;28;20366;-78
2024/01/30 03:25:29;;;;;;;6.95;5.28;;;4.40;61.90;;;;;;5094845;28;20024;-79
2024/01/30 03:27:54;;;;;;;7.15;5.13;;;4.40;61.80;;;;;;5095740;28;20059;-77
2024/01/30 03:30:20;;;;;;;6.55;5.05;;;4.40;61.80;;;;;;5094539;28;20085;-78
2024/01/30 03:32:46;;;;;;;7.80;5.38;;;4.40;61.80;;;;;;5095761;28;20047;-79
2024/01/30 03:35:12;;;;;;;7.68;5.43;;;4.40;61.90;;;;;;5076621;28;20049;-77
2024/01/30 03:37:38;;;;;;;6.90;4.93;;;4.40;61.80;;;;;;5095644;28;20020;-78
2024/01/30 03:40:04;;;;;;;7.50;5.57;;;4.40;61.80;;;;;;5076543;28;20457;-78
2024/01/30 03:42:30;;;;;;;7.40;5.72;;;4.40;61.80;;;;;;5094434;28;20028;-78
2024/01/30 03:44:56;;;;;;;7.38;5.55;;;4.30;61.70;;;;;;5095008;28;20028;-79
2024/01/30 03:47:22;;;;;;;7.13;5.82;;;4.40;61.80;;;;;;5094971;28;20453;-79
2024/01/30 03:49:48;;;;;;;6.20;4.82;;;4.30;61.80;;;;;;5110593;28;20059;-78
2024/01/30 03:52:14;;;;;;;7.32;5.15;;;4.30;61.80;;;;;;5100376;28;20396;-79
2024/01/30 03:54:40;;;;;;;7.32;5.53;;;4.30;61.70;;;;;;5097145;28;20460;-78
2024/01/30 03:57:05;;;;;;;10.15;5.40;;;4.30;61.70;;;;;;5110622;28;20016;-79
2024/01/30 03:59:31;;;;;;;8.68;5.35;;;4.30;61.70;;;;;;5094080;28;20040;-78
2024/01/30 04:01:57;;;;;;;6.60;5.30;;;4.30;61.70;;;;;;5109417;28;20407;-78
2024/01/30 04:04:23;;;;;;;6.97;5.65;;;4.30;61.80;;;;;;5109977;28;20580;-78
2024/01/30 04:06:48;;;;;;;7.13;5.00;;;4.30;61.70;;;;;;5094746;28;20031;-78
2024/01/30 04:09:15;;;;;;;6.82;5.53;;;4.30;61.80;;;;;;5094015;28;20020;-79
2024/01/30 04:11:41;;;;;;;6.53;4.72;;;4.30;61.70;;;;;;5094204;28;20032;-79
2024/01/30 04:14:07;;;;;;;6.80;5.30;;;4.30;61.70;;;;;;5094588;28;20028;-78
2024/01/30 04:16:34;;;;;;;8.27;5.38;;;4.20;61.60;;;;;;5093923;28;20369;-79
2024/01/30 04:18:59;;;;;;;5.95;4.93;;;4.30;61.70;;;;;;5076018;28;20396;-78
2024/01/30 04:21:25;;;;;;;6.47;5.07;;;4.30;61.70;;;;;;5094528;28;20024;-78
2024/01/30 04:23:51;;;;;;;6.80;5.32;;;4.30;61.80;;;;;;5110544;28;20032;-78
2024/01/30 04:26:18;;;;;;;6.00;4.82;;;4.20;61.70;;;;;;5075961;28;20107;-79
2024/01/30 04:28:45;;;;;;;5.80;4.80;;;4.20;61.70;;;;;;5093798;28;20462;-80
2024/01/30 04:31:11;;;;;;;6.80;5.03;;;4.20;61.70;;;;;;5094543;28;20028;-80
2024/01/30 04:33:37;;;;;;;6.97;5.03;;;4.20;61.80;;;;;;5094558;28;20027;-80
2024/01/30 04:36:03;;;;;;;5.70;4.57;;;4.20;61.80;;;;;;5095791;28;20024;-79
2024/01/30 04:38:29;;;;;;;5.80;4.70;;;4.20;61.70;;;;;;5095829;28;20024;-78
2024/01/30 04:40:56;;;;;;;6.35;5.35;;;4.20;61.70;;;;;;5094899;28;20514;-78
2024/01/30 04:43:21;;;;;;;6.15;4.88;;;4.20;61.70;;;;;;5094243;28;20024;-78
2024/01/30 04:45:47;;;;;;;6.30;5.13;;;4.20;61.70;;;;;;5112398;28;20020;-77
2024/01/30 04:48:13;;;;;;;6.63;5.38;;;4.20;61.70;;;;;;5077869;28;20020;-77
2024/01/30 04:50:39;;;;;;;7.18;5.47;;;4.20;61.70;;;;;;5112068;28;20101;-78
2024/01/30 04:53:05;;;;;;;7.13;5.32;;;4.20;61.70;;;;;;5110526;28;20020;-78
2024/01/30 04:55:30;;;;;;;8.32;6.05;;;4.20;61.70;;;;;;5111319;28;20030;-77
2024/01/30 04:57:56;;;;;;;7.88;5.88;;;4.20;61.80;;;;;;5093773;28;20462;-78
2024/01/30 05:00:22;;;;;;;9.77;6.45;;;4.20;61.80;;;;;;5094517;28;20444;-78
2024/01/30 05:02:48;;;;;;;9.10;6.00;;;4.20;61.80;;;;;;5075972;28;20020;-79
2024/01/30 05:05:14;;;;;;;8.43;6.10;;;4.20;61.80;;;;;;5094415;28;20024;-78
2024/01/30 05:07:41;;;;;;;8.35;6.03;;;4.20;61.80;;;;;;5075939;28;20027;-78
2024/01/30 05:10:08;;;;;;;9.70;6.50;;;4.20;61.80;;;;;;5075642;28;20032;-78
2024/01/30 05:12:34;;;;;;;9.40;6.13;;;4.20;61.90;;;;;;5077558;28;20106;-76
2024/01/30 05:15:00;;;;;;;8.00;5.85;;;4.10;61.80;;;;;;5097424;28;20099;-81
2024/01/30 05:17:25;;;;;;;8.15;5.68;;;4.10;61.80;;;;;;5079428;28;20078;-78
2024/01/30 05:19:51;;;;;;;9.27;6.28;;;4.10;61.80;;;;;;5097656;28;20035;-79
2024/01/30 05:22:18;;;;;;;8.13;6.18;;;4.10;61.80;;;;;;5079604;28;20443;-80
2024/01/30 05:24:44;;;;;;;7.60;5.50;;;4.10;61.80;;;;;;5081826;28;20424;-79
2024/01/30 05:27:10;;;;;;;7.22;5.40;;;4.10;61.80;;;;;;5098282;28;20028;-78
2024/01/30 05:29:36;;;;;;;7.07;5.68;;;4.10;61.80;;;;;;5098075;28;20080;-80
2024/01/30 05:32:03;;;;;;;8.85;5.97;;;4.10;61.80;;;;;;5079456;28;20374;-79
2024/01/30 05:34:28;;;;;;;9.30;6.00;;;4.10;61.70;;;;;;5097230;28;20024;-79
2024/01/30 05:36:54;;;;;;;7.85;5.60;;;4.10;61.80;;;;;;5079609;28;20020;-78
2024/01/30 05:39:20;;;;;;;7.57;5.20;;;4.10;61.70;;;;;;5079097;28;20020;-81
2024/01/30 05:41:46;;;;;;;7.68;5.43;;;4.10;61.70;;;;;;5078844;28;20031;-80
2024/01/30 05:44:12;;;;;;;7.88;5.63;;;4.10;61.70;;;;;;5078798;28;20470;-81
2024/01/30 05:46:37;;;;;;;7.53;5.18;;;4.10;61.70;;;;;;5096650;28;20102;-80
2024/01/30 05:49:03;;;;;;;6.28;5.43;;;4.10;61.70;;;;;;5078580;28;20150;-78
2024/01/30 05:51:29;;;;;;;7.70;5.07;;;4.10;61.70;;;;;;5078560;28;20032;-82
2024/01/30 05:53:55;;;;;;;7.28;5.60;;;4.10;61.70;;;;;;5097480;28;20075;-84
2024/01/30 05:56:21;;;;;;;7.88;5.70;;;4.20;61.70;;;;;;5097917;28;20024;-79
2024/01/30 05:58:46;;;;;;;6.82;5.32;;;4.20;61.70;;;;;;5080642;28;20023;-82
2024/01/30 06:01:12;;;;;;;7.70;5.57;;;4.20;61.70;;;;;;5079398;28;20351;-84
2024/01/30 06:03:38;;;;;;;7.55;5.75;;;4.20;61.70;;;;;;5079929;28;20069;-83
2024/01/30 06:06:04;;;;;;;8.45;5.78;;;4.20;61.60;;;;;;5081296;28;20085;-84
2024/01/30 06:08:30;;;;;;;6.90;5.55;;;4.20;61.60;;;;;;5097084;28;20020;-78
2024/01/30 06:10:56;;;;;;;7.80;5.75;;;4.20;61.60;;;;;;5096833;28;20079;-83
2024/01/30 06:13:22;;;;;;;8.80;5.80;;;4.20;61.60;;;;;;5096035;28;20020;-78
2024/01/30 06:15:47;;;;;;;7.68;5.85;;;4.20;61.60;;;;;;5096347;28;20027;-79
2024/01/30 06:18:13;;;;;;;8.25;6.00;;;4.20;61.60;;;;;;5096674;28;20133;-80
2024/01/30 06:20:39;;;;;;;8.77;5.63;;;4.20;61.60;;;;;;5096464;28;20020;-81
2024/01/30 06:23:05;;;;;;;6.88;5.50;;;4.30;61.60;;;;;;5078291;28;20024;-81
2024/01/30 06:25:30;;;;;;;8.10;5.70;;;4.20;61.50;;;;;;5078119;28;20023;-81
2024/01/30 06:27:57;;;;;;;6.82;5.28;;;4.30;61.60;;;;;;5101056;28;20032;-80
2024/01/30 06:30:22;;;;;;;7.65;5.95;;;4.30;61.60;;;;;;5085544;28;20024;-79
2024/01/30 06:32:48;;;;;;;7.85;5.90;;;4.30;61.50;;;;;;5104145;28;20398;-80
2024/01/30 06:35:14;;;;;;;7.30;5.43;;;4.30;61.50;;;;;;5084626;28;20020;-78
2024/01/30 06:37:40;;;;;;;8.15;5.65;;;4.30;61.50;;;;;;5080460;28;20110;-80
2024/01/30 06:40:06;;;;;;;7.82;6.38;;;4.30;61.50;;;;;;5099980;28;20047;-80
2024/01/30 06:42:32;;;;;;;7.28;5.32;;;4.30;61.40;;;;;;5097927;28;20016;-80
2024/01/30 06:44:58;;;;;;;8.23;5.63;;;4.40;61.50;;;;;;5096890;28;20016;-80
2024/01/30 06:47:24;;;;;;;7.32;4.97;;;4.40;61.40;;;;;;5096613;28;20016;-81
2024/01/30 06:49:49;;;;;;;8.00;5.70;;;4.40;61.40;;;;;;5077676;28;20016;-79
2024/01/30 06:52:15;;;;;;;6.00;4.68;;;4.40;61.30;;;;;;5077928;28;20028;-81
2024/01/30 06:54:41;;;;;;;6.30;5.03;;;4.40;61.30;;;;;;5096094;28;20454;-70
2024/01/30 06:57:11;;;;;;;6.07;4.88;;;4.50;61.30;;;;;;5098244;28;20073;-76
2024/01/30 06:59:43;;;;;;;6.63;5.10;;;4.50;61.30;;;;;;5095554;28;20085;-77
2024/01/30 07:02:09;;;;;;;6.65;5.40;;;4.50;61.30;;;;;;5077302;28;20511;-76
2024/01/30 07:04:37;;;;;;;7.97;5.72;;;4.50;61.30;;;;;;5077209;28;20031;-77
2024/01/30 07:07:04;;;;;;;7.47;5.40;;;4.50;61.30;;;;;;5077443;28;20020;-76
2024/01/30 07:09:30;;;;;;;6.35;5.28;;;4.50;61.20;;;;;;5094953;28;20030;-75
2024/01/30 07:11:58;;;;;;;5.93;5.00;;;4.50;61.30;;;;;;5076850;28;20024;-77
2024/01/30 07:14:24;;;;;;;7.57;5.25;;;4.50;61.90;;;;;;5095352;28;20028;-76
2024/01/30 07:16:50;;;;;;;6.57;4.90;;;4.50;61.30;;;;;;5084315;28;20027;-85
2024/01/30 07:19:16;;;;;;;7.10;5.00;;;4.50;61.30;;;;;;5099018;28;20042;-85
2024/01/30 07:21:42;;;;;;;6.28;5.20;;;4.60;61.40;;;;;;5079602;28;20024;-78
2024/01/30 07:24:08;;;;;;;7.40;5.55;;;4.60;61.40;;;;;;5095013;28;20020;-79
2024/01/30 07:26:35;;;;;;;7.72;5.82;;;4.60;61.30;;;;;;5077420;28;20024;-81
2024/01/30 07:29:01;;;;;;;6.97;5.03;;;4.60;61.30;;;;;;5094966;28;20039;-80
2024/01/30 07:31:27;;;;;;;6.95;5.43;;;4.70;61.30;;;;;;5076587;28;20024;-80
2024/01/30 07:33:54;;;;;;;7.45;5.38;;;4.70;61.30;;;;;;5076721;28;20023;-81
2024/01/30 07:36:20;;;;;;;7.15;5.60;;;4.70;61.30;;;;;;5095096;28;20050;-83
2024/01/30 07:38:46;;;;;;;7.80;5.55;;;4.70;61.20;;;;;;5094850;28;20020;-79
2024/01/30 07:41:12;;;;;;;7.65;5.35;;;4.80;61.30;;;;;;5094716;28;20059;-81
2024/01/30 07:43:39;;;;;;;6.53;5.20;;;4.80;61.30;;;;;;5077255;28;20430;-82
2024/01/30 07:46:06;;;;;;;7.07;5.47;;;4.80;61.30;;;;;;5095151;28;20027;-79
2024/01/30 07:48:33;;;;;;;6.60;5.20;;;4.80;61.20;;;;;;5076494;28;20030;-81
2024/01/30 07:50:59;;;;;;;7.13;5.20;;;4.90;61.20;;;;;;5094438;28;20027;-81
2024/01/30 07:53:25;;;;;;;6.97;5.30;;;4.90;61.20;;;;;;5094577;28;20016;-83
2024/01/30 07:55:52;;;;;;;6.47;5.07;;;4.90;61.30;;;;;;5081387;28;20103;-80
2024/01/30 07:58:17;;;;;;;7.28;5.25;;;4.90;61.30;;;;;;5099991;28;20454;-80
2024/01/30 08:00:43;;;;;;;6.38;5.07;;;4.90;61.30;;;;;;5095018;28;20048;-79
2024/01/30 08:03:09;;;;;;;6.28;4.97;;;5.00;61.30;;;;;;5076369;28;20157;-79
2024/01/30 08:05:35;;;;;;;7.18;5.15;;;5.00;61.30;;;;;;5076744;28;20023;-79
2024/01/30 08:08:01;;;;;;;7.45;5.40;;;5.00;61.20;;;;;;5094303;28;20504;-79
2024/01/30 08:10:26;;;;;;;6.70;5.38;;;5.00;61.20;;;;;;5076019;28;20347;-78
2024/01/30 08:12:52;;;;;;;7.47;5.70;;;5.10;61.20;;;;;;5076131;28;20016;-72
2024/01/30 08:15:18;;;;;;;6.05;5.07;;;5.10;61.20;;;;;;5076055;28;20016;-71
2024/01/30 08:17:45;;;;;;;7.03;5.10;;;5.10;61.20;;;;;;5076341;28;20027;-71
2024/01/30 08:20:11;;;;;;;6.07;4.78;;;5.10;61.20;;;;;;5076102;28;20024;-70
2024/01/30 08:22:40;;;;;;;7.45;5.80;;;5.10;61.20;;;;;;5076962;28;20020;-71
2024/01/30 08:25:07;;;;;;;7.43;5.18;;;5.10;61.20;;;;;;5093999;28;20027;-70
2024/01/30 08:27:35;;;;;;;6.97;5.40;;;5.10;61.20;;;;;;5077089;28;20028;-73
2024/01/30 08:30:01;;;;;;;6.20;5.00;;;5.10;61.10;;;;;;5075927;28;20454;-72
2024/01/30 08:32:27;;;;;;;7.63;5.25;;;5.20;61.20;;;;;;5075984;28;20050;-72
2024/01/30 08:34:53;;;;;;;6.72;4.80;;;5.20;61.10;;;;;;5093989;28;20037;-71
2024/01/30 08:37:19;;;;;;;6.40;4.65;;;5.20;61.00;;;;;;5075918;28;20339;-71
2024/01/30 08:39:44;;;;;;;6.00;4.55;;;5.30;61.00;;;;;;5094827;28;20047;-71
2024/01/30 08:42:11;;;;;;;5.95;4.85;;;5.30;60.90;;;;;;5094503;28;20070;-71
2024/01/30 08:44:37;;;;;;;5.20;4.38;;;5.30;60.90;;;;;;5093830;28;20055;-70
2024/01/30 08:47:03;;;;;;;5.63;4.60;;;5.30;60.90;;;;;;5076874;28;20056;-71
2024/01/30 08:49:28;;;;;;;5.75;4.82;;;5.30;60.80;;;;;;5097900;28;20358;-71
2024/01/30 08:51:54;;;;;;;5.85;4.55;;;5.30;60.80;;;;;;5079658;28;20028;-71
2024/01/30 08:54:20;;;;;;;5.60;4.30;;;5.40;60.80;;;;;;5079695;28;20047;-70
2024/01/30 08:56:46;;;;;;;5.80;4.63;;;5.30;60.60;;;;;;5079815;28;20016;-70
2024/01/30 08:59:12;;;;;;;5.40;4.43;;;5.40;60.60;;;;;;5079321;28;20028;-70
2024/01/30 09:01:38;;;;;;;6.30;4.10;;;5.40;60.60;;;;;;5080380;28;20054;-70
2024/01/30 09:04:04;;;;;;;5.78;4.65;;;5.40;60.50;;;;;;5079453;28;20331;-72
2024/01/30 09:06:29;;;;;;;6.78;4.55;;;5.40;60.50;;;;;;5079958;28;20077;-71
2024/01/30 09:08:57;;;;;;;4.97;4.30;;;5.50;60.50;;;;;;5079444;28;20020;-71
2024/01/30 09:11:23;;;;;;;5.25;4.13;;;5.50;60.40;;;;;;5079808;28;20050;-71
2024/01/30 09:13:49;;;;;;;5.38;4.40;;;5.50;60.40;;;;;;5079318;28;20020;-71
2024/01/30 09:16:16;;;;;;;4.72;3.83;;;5.50;60.40;;;;;;5098021;28;20073;-71
2024/01/30 09:18:42;;;;;;;5.00;4.25;;;5.50;60.30;;;;;;5079207;28;20024;-72
2024/01/30 09:21:08;;;;;;;5.18;3.60;;;5.50;60.30;;;;;;5096731;28;20081;-70
2024/01/30 09:23:33;;;;;;;5.25;3.97;;;5.60;60.30;;;;;;5097530;28;20024;-71
2024/01/30 09:25:59;;;;;;;5.28;4.15;;;5.60;60.20;;;;;;5079028;28;20027;-71
2024/01/30 09:28:26;;;;;;;5.53;3.90;;;5.60;60.20;;;;;;5096911;28;20454;-70
2024/01/30 09:30:52;;;;;;;4.70;3.90;;;5.60;60.10;;;;;;5078964;28;20057;-70
2024/01/30 09:33:18;;;;;;;4.97;4.15;;;5.60;60.10;;;;;;5078974;28;20020;-71
2024/01/30 09:35:43;;;;;;;4.53;3.67;;;5.60;60.00;;;;;;5078921;28;20027;-70
2024/01/30 09:38:10;;;;;;;4.57;3.60;;;5.70;60.10;;;;;;5097328;28;20039;-71
2024/01/30 09:40:36;;;;;;;4.75;3.80;;;5.70;60.00;;;;;;5097061;28;20024;-70
2024/01/30 09:43:02;;;;;;;4.25;3.70;;;5.70;60.00;;;;;;5078688;28;20027;-70
2024/01/30 09:45:29;;;;;;;3.83;3.42;;;5.70;60.00;;;;;;5097137;28;20020;-70
2024/01/30 09:47:59;;;;;;;4.10;3.38;;;5.70;59.90;;;;;;5078596;28;20062;-71
2024/01/30 09:50:26;;;;;;;3.95;3.50;;;5.80;60.00;;;;;;5078488;28;20028;-70
2024/01/30 09:52:55;;;;;;;4.25;3.72;;;5.70;59.90;;;;;;5078533;28;20182;-71
2024/01/30 09:55:21;;;;;;;5.25;4.10;;;5.80;59.90;;;;;;5078450;28;20031;-71
2024/01/30 09:57:47;;;;;;;3.80;3.30;;;5.80;59.90;;;;;;5078096;28;20020;-70
2024/01/30 10:00:13;;;;;;;4.63;3.75;;;5.80;59.90;;;;;;5077677;28;20073;-70
2024/01/30 10:02:40;;;;;;;5.13;3.53;;;5.80;59.80;;;;;;5078696;28;20016;-72
2024/01/30 10:05:07;;;;;;;4.07;3.50;;;5.90;59.80;;;;;;5078375;28;20024;-69
2024/01/30 10:07:34;;;;;;;3.55;3.13;;;5.90;59.70;;;;;;5096151;28;20073;-69
2024/01/30 10:10:00;;;;;;;5.00;3.70;;;5.90;59.70;;;;;;5096494;28;20075;-71
2024/01/30 10:12:30;;;;;;;3.97;3.53;;;5.90;59.60;;;;;;5096124;28;20458;-70
2024/01/30 10:14:57;;;;;;;5.78;3.90;;;5.90;59.60;;;;;;5096594;28;20055;-72
2024/01/30 10:17:25;;;;;;;4.45;3.65;;;6.00;59.50;;;;;;5096175;28;20020;-70
2024/01/30 10:19:52;;;;;;;4.57;3.60;;;6.00;59.50;;;;;;5078212;28;20024;-70
2024/01/30 10:22:17;;;;;;;3.97;3.20;;;5.90;59.50;;;;;;5077930;28;20024;-71
2024/01/30 10:24:45;;;;;;;3.67;3.10;;;6.00;59.50;;;;;;5078644;28;20027;-71
2024/01/30 10:27:11;;;;;;;4.05;3.65;;;6.00;59.50;;;;;;5077894;28;20034;-71
2024/01/30 10:29:37;;;;;;;3.47;3.17;;;6.00;59.50;;;;;;5095735;28;20028;-71
2024/01/30 10:32:05;;;;;;;3.47;3.10;;;6.10;59.50;;;;;;5077744;28;20450;-71
2024/01/30 10:34:32;;;;;;;3.53;3.00;;;6.10;59.40;;;;;;5095680;28;20328;-71
2024/01/30 10:37:12;;;;;;;4.35;3.55;;;6.20;59.40;;;;;;5077758;28;20016;-70
2024/01/30 10:39:39;;;;;;;3.70;3.30;;;6.20;59.30;;;;;;5077799;28;20114;-73
2024/01/30 10:42:06;;;;;;;3.47;3.15;;;6.20;59.20;;;;;;5077613;28;20028;-73
2024/01/30 10:44:49;;;;;;;3.78;3.00;;;6.20;59.20;;;;;;5077403;28;20458;-74
2024/01/30 10:47:25;;;;;;;3.63;3.30;;;6.20;59.10;;;;;;5077567;28;20024;-73
2024/01/30 10:49:52;;;;;;;3.85;3.03;;;6.20;59.10;;;;;;5095259;28;20020;-73
2024/01/30 10:52:19;;;;;;;3.47;3.17;;;6.20;59.00;;;;;;5077922;28;20020;-73
2024/01/30 10:54:45;;;;;;;3.72;3.33;;;6.20;59.10;;;;;;5095516;28;20024;-72
2024/01/30 10:57:13;;;;;;;3.45;2.90;;;6.20;59.10;;;;;;5095254;28;20438;-72
2024/01/30 10:59:39;;;;;;;4.75;3.28;;;6.30;59.10;;;;;;5073740;28;20127;-76
2024/01/30 11:02:06;;;;;;;4.18;3.45;;;6.30;59.00;;;;;;5073907;28;20450;-72
2024/01/30 11:04:40;;;;;;;5.03;3.50;;;6.30;59.00;;;;;;5074753;28;20037;-72
2024/01/30 11:07:24;;;;;;;4.35;3.55;;;6.40;59.00;;;;;;5073769;28;20111;-72
2024/01/30 11:10:02;;;;;;;4.38;3.40;;;6.50;58.80;;;;;;5074167;28;20052;-72
2024/01/30 11:12:30;;;;;;;3.50;2.90;;;6.50;58.80;;;;;;5075083;28;20024;-71
2024/01/30 11:15:07;;;;;;;3.83;3.30;;;6.60;58.80;;;;;;5073503;28;20017;-73
2024/01/30 11:17:48;;;;;;;3.15;2.85;;;6.60;58.70;;;;;;5073551;28;20027;-72
2024/01/30 11:20:32;;;;;;;3.42;3.13;;;6.60;58.70;;;;;;5074893;28;20028;-73
2024/01/30 11:22:59;;;;;;;3.40;3.07;;;6.70;58.70;;;;;;5074822;28;20052;-73
2024/01/30 11:25:25;;;;;;;3.92;3.05;;;6.80;58.70;;;;;;5073442;28;20024;-72
2024/01/30 11:27:55;;;;;;;3.20;2.90;;;6.80;58.50;;;;;;5073144;28;20021;-72
2024/01/30 11:30:28;;;;;;;3.13;2.80;;;6.90;58.50;;;;;;5074345;28;20413;-71
2024/01/30 11:33:13;;;;;;;3.65;3.13;;;6.90;58.40;;;;;;5074537;28;20032;-73
2024/01/30 11:35:43;;;;;;;3.30;3.00;;;7.00;58.40;;;;;;5073212;28;20021;-72
2024/01/30 11:38:13;;;;;;;3.65;3.00;;;7.10;58.30;;;;;;5075311;28;20024;-71
2024/01/30 11:40:40;;;;;;;3.83;3.40;;;7.10;58.10;;;;;;5074253;28;20023;-73
2024/01/30 11:43:07;;;;;;;3.90;3.20;;;7.10;58.00;;;;;;5074015;28;20454;-72
2024/01/30 11:45:34;;;;;;;3.67;3.28;;;7.10;58.00;;;;;;5074871;28;20339;-73
2024/01/30 11:48:03;;;;;;;3.72;2.90;;;7.20;58.00;;;;;;5073594;28;20099;-72
2024/01/30 11:50:39;;;;;;;3.42;2.88;;;7.20;58.00;;;;;;5073954;28;20493;-73
2024/01/30 11:53:04;;;;;;;3.30;3.00;;;7.20;57.90;;;;;;5075022;28;20017;-72
2024/01/30 11:55:31;;;;;;;3.90;3.08;;;7.20;57.80;;;;;;5073367;28;20017;-73
2024/01/30 11:57:59;;;;;;;3.63;2.97;;;7.20;57.80;;;;;;5074180;28;20031;-73
2024/01/30 12:00:25;;;;;;;3.40;3.10;;;7.30;57.80;;;;;;5085576;28;20366;-74
2024/01/30 12:02:57;;;;;;;3.45;3.10;;;7.20;57.70;;;;;;5076300;28;20024;-74
2024/01/30 12:05:23;;;;;;;3.72;3.05;;;7.30;57.80;;;;;;5076254;28;20502;-74
2024/01/30 12:07:49;;;;;;;4.30;3.08;;;7.30;57.70;;;;;;5094284;28;20020;-74
2024/01/30 12:10:15;;;;;;;3.72;2.92;;;7.30;57.70;;;;;;5094442;28;20115;-74
2024/01/30 12:12:45;;;;;;;3.10;2.80;;;7.30;57.60;;;;;;5094477;28;20145;-74
2024/01/30 12:15:11;;;;;;;3.53;3.10;;;7.30;57.60;;;;;;5076076;28;20358;-73
2024/01/30 12:17:37;;;;;;;3.72;3.10;;;7.30;57.60;;;;;;5075891;28;20024;-75
2024/01/30 12:20:07;;;;;;;3.45;3.15;;;7.30;57.80;;;;;;5093853;28;20031;-73
2024/01/30 12:22:41;;;;;;;3.40;2.88;;;7.30;57.50;;;;;;5074842;28;20020;-73
2024/01/30 12:25:15;;;;;;;3.05;2.75;;;7.40;57.60;;;;;;5094064;28;20016;-73
2024/01/30 12:27:46;;;;;;;3.80;3.35;;;7.40;57.50;;;;;;5075981;28;20051;-74
2024/01/30 12:30:13;;;;;;;3.58;3.00;;;7.40;57.50;;;;;;5075728;28;20127;-76
2024/01/30 12:32:42;;;;;;;3.25;2.95;;;7.40;57.50;;;;;;5075779;28;20060;-73
2024/01/30 12:35:10;;;;;;;3.53;3.15;;;7.40;57.50;;;;;;5093543;28;20400;-76
2024/01/30 12:37:36;;;;;;;3.75;3.10;;;7.40;57.50;;;;;;5075778;28;20028;-75
2024/01/30 12:40:02;;;;;;;4.15;3.50;;;7.40;57.50;;;;;;5075763;28;20043;-74
2024/01/30 12:42:28;;;;;;;3.60;3.25;;;7.40;57.40;;;;;;5075570;28;20442;-73
2024/01/30 12:44:54;;;;;;;3.78;3.28;;;7.40;57.50;;;;;;5076225;28;20024;-73
2024/01/30 12:47:23;;;;;;;4.05;3.45;;;7.40;57.50;;;;;;5076232;28;20051;-75
2024/01/30 12:49:48;;;;;;;3.88;3.08;;;7.50;57.50;;;;;;5093794;28;20024;-72
2024/01/30 12:52:16;;;;;;;3.80;3.22;;;7.50;57.50;;;;;;5076481;28;20468;-72
2024/01/30 12:54:42;;;;;;;3.28;2.97;;;7.50;57.50;;;;;;5094210;28;20373;-75